sensor_id;sensor_type;location;lat;lon;timestamp;pressure;altitude;pressure_sealevel;temperature;humidity
46211;BME280;52144;48.040;-1.594;2023-07-29T00:01:12;100553.81;;;22.48;91.95
46211;BME280;52144;48.040;-1.594;2023-07-29T00:03:40;100550.66;;;22.42;92.89
46211;BME280;52144;48.040;-1.594;2023-07-29T00:06:09;100543.59;;;22.59;91.78
46211;BME280;52144;48.040;-1.594;2023-07-29T00:08:38;100542.63;;;22.51;93.23
46211;BME280;52144;48.040;-1.594;2023-07-29T00:11:06;100544.63;;;22.49;92.65
46211;BME280;52144;48.040;-1.594;2023-07-29T00:13:34;100537.88;;;22.35;93.71
46211;BME280;52144;48.040;-1.594;2023-07-29T00:16:01;100534.28;;;22.62;92.34
46211;BME280;52144;48.040;-1.594;2023-07-29T00:18:29;100534.84;;;22.00;96.28
46211;BME280;52144;48.040;-1.594;2023-07-29T00:20:57;100542.63;;;22.23;96.39
46211;BME280;52144;48.040;-1.594;2023-07-29T00:23:25;100542.09;;;22.47;93.72
46211;BME280;52144;48.040;-1.594;2023-07-29T00:25:54;100542.03;;;22.29;95.29
46211;BME280;52144;48.040;-1.594;2023-07-29T00:28:22;100534.69;;;22.39;94.27
46211;BME280;52144;48.040;-1.594;2023-07-29T00:30:50;100528.41;;;22.84;92.74
46211;BME280;52144;48.040;-1.594;2023-07-29T00:33:17;100533.28;;;22.81;92.75
46211;BME280;52144;48.040;-1.594;2023-07-29T00:35:46;100524.53;;;23.05;90.96
46211;BME280;52144;48.040;-1.594;2023-07-29T00:38:14;100520.63;;;22.54;93.03
46211;BME280;52144;48.040;-1.594;2023-07-29T00:40:42;100528.44;;;22.57;94.54
46211;BME280;52144;48.040;-1.594;2023-07-29T00:43:12;100530.63;;;22.71;93.80
46211;BME280;52144;48.040;-1.594;2023-07-29T00:45:43;100528.09;;;22.42;95.60
46211;BME280;52144;48.040;-1.594;2023-07-29T00:48:11;100512.94;;;22.85;92.98
46211;BME280;52144;48.040;-1.594;2023-07-29T00:50:39;100518.28;;;22.59;94.26
46211;BME280;52144;48.040;-1.594;2023-07-29T00:53:07;100514.25;;;22.81;93.13
46211;BME280;52144;48.040;-1.594;2023-07-29T00:55:35;100505.56;;;22.77;92.92
46211;BME280;52144;48.040;-1.594;2023-07-29T00:58:04;100505.78;;;22.48;96.08
46211;BME280;52144;48.040;-1.594;2023-07-29T01:00:33;100506.28;;;22.61;95.32
46211;BME280;52144;48.040;-1.594;2023-07-29T01:03:01;100505.03;;;22.92;93.39
46211;BME280;52144;48.040;-1.594;2023-07-29T01:05:33;100514.44;;;22.61;94.88
46211;BME280;52144;48.040;-1.594;2023-07-29T01:08:09;100501.81;;;22.42;97.60
46211;BME280;52144;48.040;-1.594;2023-07-29T01:10:46;100504.53;;;22.15;98.23
46211;BME280;52144;48.040;-1.594;2023-07-29T01:13:23;100506.91;;;22.55;95.59
46211;BME280;52144;48.040;-1.594;2023-07-29T01:16:00;100490.94;;;22.42;95.87
46211;BME280;52144;48.040;-1.594;2023-07-29T01:18:31;100491.91;;;22.69;95.50
46211;BME280;52144;48.040;-1.594;2023-07-29T01:21:02;100487.81;;;22.83;93.63
46211;BME280;52144;48.040;-1.594;2023-07-29T01:23:33;100485.47;;;22.70;95.36
46211;BME280;52144;48.040;-1.594;2023-07-29T01:26:02;100482.38;;;22.83;95.04
46211;BME280;52144;48.040;-1.594;2023-07-29T01:28:31;100480.88;;;22.53;95.85
46211;BME280;52144;48.040;-1.594;2023-07-29T01:31:05;100482.06;;;22.68;96.26
46211;BME280;52144;48.040;-1.594;2023-07-29T01:33:39;100479.72;;;22.91;93.62
46211;BME280;52144;48.040;-1.594;2023-07-29T01:36:11;100476.34;;;23.07;93.17
46211;BME280;52144;48.040;-1.594;2023-07-29T01:38:44;100472.69;;;23.16;92.80
46211;BME280;52144;48.040;-1.594;2023-07-29T01:41:12;100472.34;;;23.19;92.50
46211;BME280;52144;48.040;-1.594;2023-07-29T01:43:41;100476.72;;;23.12;93.01
46211;BME280;52144;48.040;-1.594;2023-07-29T01:46:11;100479.31;;;23.22;92.72
46211;BME280;52144;48.040;-1.594;2023-07-29T01:48:39;100477.41;;;23.14;92.90
46211;BME280;52144;48.040;-1.594;2023-07-29T01:51:07;100481.81;;;22.79;94.18
46211;BME280;52144;48.040;-1.594;2023-07-29T01:53:36;100472.81;;;22.97;94.96
46211;BME280;52144;48.040;-1.594;2023-07-29T01:56:05;100478.56;;;22.58;96.01
46211;BME280;52144;48.040;-1.594;2023-07-29T01:58:33;100478.88;;;22.91;95.67
46211;BME280;52144;48.040;-1.594;2023-07-29T02:01:01;100481.03;;;22.69;96.91
46211;BME280;52144;48.040;-1.594;2023-07-29T02:03:28;100477.56;;;22.95;95.58
46211;BME280;52144;48.040;-1.594;2023-07-29T02:05:56;100491.47;;;22.74;95.55
46211;BME280;52144;48.040;-1.594;2023-07-29T02:08:24;100480.53;;;22.66;96.55
46211;BME280;52144;48.040;-1.594;2023-07-29T02:10:52;100481.03;;;22.69;96.59
46211;BME280;52144;48.040;-1.594;2023-07-29T02:13:21;100474.63;;;22.70;97.48
46211;BME280;52144;48.040;-1.594;2023-07-29T02:15:49;100469.22;;;23.06;94.58
46211;BME280;52144;48.040;-1.594;2023-07-29T02:18:17;100477.47;;;23.22;93.55
46211;BME280;52144;48.040;-1.594;2023-07-29T02:20:44;100467.56;;;23.13;93.95
46211;BME280;52144;48.040;-1.594;2023-07-29T02:23:16;100466.31;;;23.08;94.81
46211;BME280;52144;48.040;-1.594;2023-07-29T02:25:44;100461.50;;;23.01;95.00
46211;BME280;52144;48.040;-1.594;2023-07-29T02:28:11;100465.84;;;23.12;94.18
46211;BME280;52144;48.040;-1.594;2023-07-29T02:30:41;100463.56;;;23.26;94.04
46211;BME280;52144;48.040;-1.594;2023-07-29T02:33:11;100462.59;;;22.91;96.75
46211;BME280;52144;48.040;-1.594;2023-07-29T02:35:38;100459.16;;;22.89;96.64
46211;BME280;52144;48.040;-1.594;2023-07-29T02:38:06;100462.19;;;23.21;94.69
46211;BME280;52144;48.040;-1.594;2023-07-29T02:40:34;100462.31;;;23.20;94.78
46211;BME280;52144;48.040;-1.594;2023-07-29T02:43:02;100450.25;;;23.14;96.17
46211;BME280;52144;48.040;-1.594;2023-07-29T02:45:30;100456.38;;;22.62;100.00
46211;BME280;52144;48.040;-1.594;2023-07-29T02:47:59;100460.19;;;22.70;100.00
46211;BME280;52144;48.040;-1.594;2023-07-29T02:50:27;100454.59;;;23.07;98.90
46211;BME280;52144;48.040;-1.594;2023-07-29T02:52:54;100451.63;;;23.18;98.60
46211;BME280;52144;48.040;-1.594;2023-07-29T02:55:22;100449.56;;;23.12;98.18
46211;BME280;52144;48.040;-1.594;2023-07-29T02:57:50;100462.44;;;22.74;100.00
46211;BME280;52144;48.040;-1.594;2023-07-29T03:00:18;100463.44;;;22.73;100.00
46211;BME280;52144;48.040;-1.594;2023-07-29T03:02:45;100455.50;;;22.44;100.00
46211;BME280;52144;48.040;-1.594;2023-07-29T03:05:15;100458.78;;;22.48;100.00
46211;BME280;52144;48.040;-1.594;2023-07-29T03:07:43;100459.06;;;22.44;100.00
46211;BME280;52144;48.040;-1.594;2023-07-29T03:10:11;100452.81;;;22.80;100.00
46211;BME280;52144;48.040;-1.594;2023-07-29T03:12:40;100460.19;;;22.52;100.00
46211;BME280;52144;48.040;-1.594;2023-07-29T03:15:08;100455.13;;;22.57;100.00
46211;BME280;52144;48.040;-1.594;2023-07-29T03:17:36;100457.25;;;22.45;100.00
46211;BME280;52144;48.040;-1.594;2023-07-29T03:20:05;100451.13;;;22.43;100.00
46211;BME280;52144;48.040;-1.594;2023-07-29T03:22:34;100450.63;;;22.83;100.00
46211;BME280;52144;48.040;-1.594;2023-07-29T03:25:02;100455.22;;;22.47;100.00
46211;BME280;52144;48.040;-1.594;2023-07-29T03:27:32;100446.69;;;22.60;100.00
46211;BME280;52144;48.040;-1.594;2023-07-29T03:30:00;100443.50;;;22.47;100.00
46211;BME280;52144;48.040;-1.594;2023-07-29T03:32:27;100433.47;;;22.65;100.00
46211;BME280;52144;48.040;-1.594;2023-07-29T03:34:55;100436.19;;;22.65;100.00
46211;BME280;52144;48.040;-1.594;2023-07-29T03:37:23;100435.53;;;22.45;100.00
46211;BME280;52144;48.040;-1.594;2023-07-29T03:39:52;100441.19;;;22.52;100.00
46211;BME280;52144;48.040;-1.594;2023-07-29T03:42:20;100433.66;;;22.63;100.00
46211;BME280;52144;48.040;-1.594;2023-07-29T03:44:48;100438.41;;;22.61;100.00
46211;BME280;52144;48.040;-1.594;2023-07-29T03:47:15;100429.59;;;22.32;100.00
46211;BME280;52144;48.040;-1.594;2023-07-29T03:49:43;100438.22;;;22.63;100.00
46211;BME280;52144;48.040;-1.594;2023-07-29T03:52:11;100442.09;;;22.78;100.00
46211;BME280;52144;48.040;-1.594;2023-07-29T03:54:39;100445.59;;;22.71;100.00
46211;BME280;52144;48.040;-1.594;2023-07-29T03:57:08;100446.66;;;22.96;100.00
46211;BME280;52144;48.040;-1.594;2023-07-29T03:59:36;100449.22;;;23.15;100.00
46211;BME280;52144;48.040;-1.594;2023-07-29T04:02:04;100448.09;;;23.26;100.00
46211;BME280;52144;48.040;-1.594;2023-07-29T04:04:32;100444.22;;;23.29;99.14
46211;BME280;52144;48.040;-1.594;2023-07-29T04:07:00;100445.06;;;23.29;99.10
46211;BME280;52144;48.040;-1.594;2023-07-29T04:09:28;100448.72;;;23.20;99.17
46211;BME280;52144;48.040;-1.594;2023-07-29T04:11:56;100451.06;;;23.33;99.35
46211;BME280;52144;48.040;-1.594;2023-07-29T04:14:25;100452.41;;;23.11;100.00
46211;BME280;52144;48.040;-1.594;2023-07-29T04:16:53;100446.56;;;23.23;99.96
46211;BME280;52144;48.040;-1.594;2023-07-29T04:19:20;100445.88;;;23.21;100.00
46211;BME280;52144;48.040;-1.594;2023-07-29T04:21:48;100452.69;;;23.26;100.00
46211;BME280;52144;48.040;-1.594;2023-07-29T04:24:17;100442.94;;;22.97;100.00
46211;BME280;52144;48.040;-1.594;2023-07-29T04:26:46;100440.16;;;23.07;100.00
46211;BME280;52144;48.040;-1.594;2023-07-29T04:29:14;100446.91;;;23.20;100.00
46211;BME280;52144;48.040;-1.594;2023-07-29T04:31:43;100443.66;;;22.81;100.00
46211;BME280;52144;48.040;-1.594;2023-07-29T04:34:11;100442.97;;;22.43;100.00
46211;BME280;52144;48.040;-1.594;2023-07-29T04:36:39;100445.38;;;22.64;100.00
46211;BME280;52144;48.040;-1.594;2023-07-29T04:39:06;100449.28;;;22.88;100.00
46211;BME280;52144;48.040;-1.594;2023-07-29T04:41:34;100452.22;;;23.04;100.00
46211;BME280;52144;48.040;-1.594;2023-07-29T04:44:02;100462.88;;;23.23;100.00
46211;BME280;52144;48.040;-1.594;2023-07-29T04:46:30;100456.31;;;23.08;100.00
46211;BME280;52144;48.040;-1.594;2023-07-29T04:48:59;100463.59;;;23.08;100.00
46211;BME280;52144;48.040;-1.594;2023-07-29T04:51:27;100454.13;;;22.76;100.00
46211;BME280;52144;48.040;-1.594;2023-07-29T04:53:55;100459.66;;;22.84;100.00
46211;BME280;52144;48.040;-1.594;2023-07-29T04:56:23;100461.66;;;23.00;100.00
46211;BME280;52144;48.040;-1.594;2023-07-29T04:58:51;100462.28;;;22.76;100.00
46211;BME280;52144;48.040;-1.594;2023-07-29T05:01:19;100459.41;;;22.77;100.00
46211;BME280;52144;48.040;-1.594;2023-07-29T05:03:46;100461.75;;;22.72;100.00
46211;BME280;52144;48.040;-1.594;2023-07-29T05:06:16;100456.84;;;22.58;100.00
46211;BME280;52144;48.040;-1.594;2023-07-29T05:08:43;100465.84;;;22.76;100.00
46211;BME280;52144;48.040;-1.594;2023-07-29T05:11:11;100464.47;;;23.08;100.00
46211;BME280;52144;48.040;-1.594;2023-07-29T05:13:39;100463.19;;;23.20;100.00
46211;BME280;52144;48.040;-1.594;2023-07-29T05:16:07;100458.94;;;23.44;99.01
46211;BME280;52144;48.040;-1.594;2023-07-29T05:18:34;100463.63;;;23.34;98.82
46211;BME280;52144;48.040;-1.594;2023-07-29T05:21:02;100466.22;;;23.17;98.99
46211;BME280;52144;48.040;-1.594;2023-07-29T05:23:31;100463.84;;;23.14;99.73
46211;BME280;52144;48.040;-1.594;2023-07-29T05:25:59;100466.22;;;23.17;100.00
46211;BME280;52144;48.040;-1.594;2023-07-29T05:28:27;100469.69;;;23.28;99.45
46211;BME280;52144;48.040;-1.594;2023-07-29T05:30:55;100461.06;;;23.06;99.24
46211;BME280;52144;48.040;-1.594;2023-07-29T05:33:23;100464.38;;;23.00;100.00
46211;BME280;52144;48.040;-1.594;2023-07-29T05:35:51;100463.28;;;23.11;100.00
46211;BME280;52144;48.040;-1.594;2023-07-29T05:38:18;100462.22;;;23.30;99.89
46211;BME280;52144;48.040;-1.594;2023-07-29T05:40:49;100460.00;;;23.51;98.61
46211;BME280;52144;48.040;-1.594;2023-07-29T05:43:17;100462.03;;;23.49;99.20
46211;BME280;52144;48.040;-1.594;2023-07-29T05:45:45;100459.78;;;23.44;98.75
46211;BME280;52144;48.040;-1.594;2023-07-29T05:48:12;100448.06;;;23.44;98.96
46211;BME280;52144;48.040;-1.594;2023-07-29T05:50:40;100455.22;;;23.45;100.00
46211;BME280;52144;48.040;-1.594;2023-07-29T05:53:08;100450.97;;;23.51;98.92
46211;BME280;52144;48.040;-1.594;2023-07-29T05:55:36;100448.47;;;23.57;98.29
46211;BME280;52144;48.040;-1.594;2023-07-29T05:58:05;100451.41;;;23.64;97.18
46211;BME280;52144;48.040;-1.594;2023-07-29T06:00:33;100446.66;;;23.66;97.06
46211;BME280;52144;48.040;-1.594;2023-07-29T06:03:01;100444.84;;;23.49;96.94
46211;BME280;52144;48.040;-1.594;2023-07-29T06:05:29;100452.44;;;23.63;97.60
46211;BME280;52144;48.040;-1.594;2023-07-29T06:07:56;100454.31;;;23.71;96.73
46211;BME280;52144;48.040;-1.594;2023-07-29T06:10:24;100456.25;;;23.52;98.99
46211;BME280;52144;48.040;-1.594;2023-07-29T06:12:52;100453.72;;;23.25;99.60
46211;BME280;52144;48.040;-1.594;2023-07-29T06:15:21;100457.28;;;23.25;98.94
46211;BME280;52144;48.040;-1.594;2023-07-29T06:17:49;100458.56;;;23.39;98.82
46211;BME280;52144;48.040;-1.594;2023-07-29T06:20:20;100465.38;;;23.17;100.00
46211;BME280;52144;48.040;-1.594;2023-07-29T06:22:47;100468.81;;;23.45;98.35
46211;BME280;52144;48.040;-1.594;2023-07-29T06:25:15;100475.75;;;23.21;98.49
46211;BME280;52144;48.040;-1.594;2023-07-29T06:27:43;100477.66;;;23.03;100.00
46211;BME280;52144;48.040;-1.594;2023-07-29T06:30:11;100474.75;;;22.69;100.00
46211;BME280;52144;48.040;-1.594;2023-07-29T06:32:40;100476.22;;;22.99;100.00
46211;BME280;52144;48.040;-1.594;2023-07-29T06:35:08;100476.41;;;23.15;100.00
46211;BME280;52144;48.040;-1.594;2023-07-29T06:37:36;100485.38;;;23.34;97.67
46211;BME280;52144;48.040;-1.594;2023-07-29T06:40:05;100489.75;;;22.91;98.39
46211;BME280;52144;48.040;-1.594;2023-07-29T06:42:33;100478.56;;;22.94;98.51
46211;BME280;52144;48.040;-1.594;2023-07-29T06:45:00;100491.22;;;22.67;98.10
46211;BME280;52144;48.040;-1.594;2023-07-29T06:47:28;100485.78;;;22.85;99.01
46211;BME280;52144;48.040;-1.594;2023-07-29T06:49:57;100483.19;;;23.37;95.79
46211;BME280;52144;48.040;-1.594;2023-07-29T06:52:25;100497.19;;;23.51;95.14
46211;BME280;52144;48.040;-1.594;2023-07-29T06:54:53;100496.03;;;23.53;94.19
46211;BME280;52144;48.040;-1.594;2023-07-29T06:57:21;100495.22;;;23.61;94.15
46211;BME280;52144;48.040;-1.594;2023-07-29T06:59:49;100492.41;;;23.44;93.77
46211;BME280;52144;48.040;-1.594;2023-07-29T07:02:16;100495.47;;;23.23;94.29
46211;BME280;52144;48.040;-1.594;2023-07-29T07:04:45;100490.59;;;22.73;97.72
46211;BME280;52144;48.040;-1.594;2023-07-29T07:07:15;100496.91;;;22.74;99.11
46211;BME280;52144;48.040;-1.594;2023-07-29T07:09:42;100478.56;;;22.94;96.55
46211;BME280;52144;48.040;-1.594;2023-07-29T07:12:10;100487.53;;;23.30;93.67
46211;BME280;52144;48.040;-1.594;2023-07-29T07:14:38;100487.09;;;22.99;95.17
46211;BME280;52144;48.040;-1.594;2023-07-29T07:17:06;100493.63;;;23.50;93.73
46211;BME280;52144;48.040;-1.594;2023-07-29T07:19:36;100498.34;;;23.92;92.95
46211;BME280;52144;48.040;-1.594;2023-07-29T07:22:04;100508.13;;;24.19;89.29
46211;BME280;52144;48.040;-1.594;2023-07-29T07:24:34;100502.81;;;23.75;91.77
46211;BME280;52144;48.040;-1.594;2023-07-29T07:27:02;100507.53;;;23.99;90.56
46211;BME280;52144;48.040;-1.594;2023-07-29T07:29:29;100508.88;;;23.95;91.91
46211;BME280;52144;48.040;-1.594;2023-07-29T07:31:59;100506.38;;;23.76;89.83
46211;BME280;52144;48.040;-1.594;2023-07-29T07:34:26;100505.25;;;23.60;91.72
46211;BME280;52144;48.040;-1.594;2023-07-29T07:36:54;100505.09;;;23.36;92.71
46211;BME280;52144;48.040;-1.594;2023-07-29T07:39:22;100509.25;;;23.48;92.73
46211;BME280;52144;48.040;-1.594;2023-07-29T07:41:51;100511.50;;;23.27;93.96
46211;BME280;52144;48.040;-1.594;2023-07-29T07:44:20;100511.06;;;23.66;92.06
46211;BME280;52144;48.040;-1.594;2023-07-29T07:46:47;100521.63;;;23.69;91.70
46211;BME280;52144;48.040;-1.594;2023-07-29T07:49:15;100526.06;;;23.96;90.30
46211;BME280;52144;48.040;-1.594;2023-07-29T07:51:43;100530.56;;;23.35;90.59
46211;BME280;52144;48.040;-1.594;2023-07-29T07:54:11;100524.88;;;23.46;88.47
46211;BME280;52144;48.040;-1.594;2023-07-29T07:56:39;100527.03;;;23.42;86.69
46211;BME280;52144;48.040;-1.594;2023-07-29T07:59:08;100515.44;;;23.58;85.12
46211;BME280;52144;48.040;-1.594;2023-07-29T08:01:36;100513.50;;;23.51;85.47
46211;BME280;52144;48.040;-1.594;2023-07-29T08:04:05;100518.84;;;23.60;83.59
46211;BME280;52144;48.040;-1.594;2023-07-29T08:06:33;100524.44;;;23.33;83.44
46211;BME280;52144;48.040;-1.594;2023-07-29T08:09:02;100516.91;;;23.53;84.34
46211;BME280;52144;48.040;-1.594;2023-07-29T08:11:30;100517.81;;;23.53;81.70
46211;BME280;52144;48.040;-1.594;2023-07-29T08:13:58;100525.16;;;23.35;81.89
46211;BME280;52144;48.040;-1.594;2023-07-29T08:16:27;100522.44;;;23.35;82.21
46211;BME280;52144;48.040;-1.594;2023-07-29T08:18:55;100512.81;;;23.75;79.88
46211;BME280;52144;48.040;-1.594;2023-07-29T08:21:23;100514.22;;;23.79;80.30
46211;BME280;52144;48.040;-1.594;2023-07-29T08:23:51;100511.97;;;23.74;80.36
46211;BME280;52144;48.040;-1.594;2023-07-29T08:26:18;100518.13;;;24.02;80.11
46211;BME280;52144;48.040;-1.594;2023-07-29T08:28:48;100515.97;;;24.57;75.36
46211;BME280;52144;48.040;-1.594;2023-07-29T08:31:18;100521.31;;;24.99;74.54
46211;BME280;52144;48.040;-1.594;2023-07-29T08:33:47;100519.06;;;23.93;77.50
46211;BME280;52144;48.040;-1.594;2023-07-29T08:36:15;100526.19;;;23.86;78.66
46211;BME280;52144;48.040;-1.594;2023-07-29T08:38:43;100526.69;;;23.81;77.94
46211;BME280;52144;48.040;-1.594;2023-07-29T08:41:14;100526.41;;;23.75;78.11
46211;BME280;52144;48.040;-1.594;2023-07-29T08:43:46;100518.00;;;24.12;76.47
46211;BME280;52144;48.040;-1.594;2023-07-29T08:46:16;100525.06;;;24.39;75.54
46211;BME280;52144;48.040;-1.594;2023-07-29T08:48:45;100520.03;;;24.53;74.38
46211;BME280;52144;48.040;-1.594;2023-07-29T08:51:15;100528.13;;;24.95;73.21
46211;BME280;52144;48.040;-1.594;2023-07-29T08:53:45;100530.50;;;25.15;73.17
46211;BME280;52144;48.040;-1.594;2023-07-29T08:56:13;100528.63;;;25.07;72.37
46211;BME280;52144;48.040;-1.594;2023-07-29T08:58:41;100527.25;;;25.03;72.63
46211;BME280;52144;48.040;-1.594;2023-07-29T09:01:10;100526.63;;;25.34;70.90
46211;BME280;52144;48.040;-1.594;2023-07-29T09:03:38;100528.81;;;25.14;71.51
46211;BME280;52144;48.040;-1.594;2023-07-29T09:06:07;100541.91;;;24.86;73.00
46211;BME280;52144;48.040;-1.594;2023-07-29T09:08:36;100536.91;;;24.73;72.52
46211;BME280;52144;48.040;-1.594;2023-07-29T09:11:04;100544.13;;;24.90;70.97
46211;BME280;52144;48.040;-1.594;2023-07-29T09:13:32;100540.53;;;24.81;71.30
46211;BME280;52144;48.040;-1.594;2023-07-29T09:16:00;100529.28;;;24.76;71.38
46211;BME280;52144;48.040;-1.594;2023-07-29T09:18:28;100534.41;;;24.88;70.89
46211;BME280;52144;48.040;-1.594;2023-07-29T09:20:59;100536.25;;;24.28;71.94
46211;BME280;52144;48.040;-1.594;2023-07-29T09:23:27;100538.13;;;24.28;71.57
46211;BME280;52144;48.040;-1.594;2023-07-29T09:26:02;100541.69;;;24.71;70.10
46211;BME280;52144;48.040;-1.594;2023-07-29T09:28:33;100538.84;;;24.89;68.98
46211;BME280;52144;48.040;-1.594;2023-07-29T09:31:02;100531.03;;;25.10;68.23
46211;BME280;52144;48.040;-1.594;2023-07-29T09:33:33;100536.47;;;25.18;66.15
46211;BME280;52144;48.040;-1.594;2023-07-29T09:36:03;100530.03;;;25.60;66.78
46211;BME280;52144;48.040;-1.594;2023-07-29T09:38:30;100532.06;;;25.26;67.91
46211;BME280;52144;48.040;-1.594;2023-07-29T09:40:58;100535.84;;;25.33;66.37
46211;BME280;52144;48.040;-1.594;2023-07-29T09:43:29;100532.06;;;25.42;67.57
46211;BME280;52144;48.040;-1.594;2023-07-29T09:46:00;100522.00;;;25.59;67.60
46211;BME280;52144;48.040;-1.594;2023-07-29T09:48:28;100531.50;;;25.79;65.98
46211;BME280;52144;48.040;-1.594;2023-07-29T09:50:59;100533.38;;;25.87;66.08
46211;BME280;52144;48.040;-1.594;2023-07-29T09:53:27;100527.28;;;25.36;67.53
46211;BME280;52144;48.040;-1.594;2023-07-29T09:55:55;100532.75;;;25.44;65.90
46211;BME280;52144;48.040;-1.594;2023-07-29T09:58:27;100532.53;;;25.78;63.96
46211;BME280;52144;48.040;-1.594;2023-07-29T10:00:55;100541.78;;;25.61;63.60
46211;BME280;52144;48.040;-1.594;2023-07-29T10:03:23;100537.44;;;26.08;61.38
46211;BME280;52144;48.040;-1.594;2023-07-29T10:05:52;100528.47;;;26.30;60.10
46211;BME280;52144;48.040;-1.594;2023-07-29T10:08:24;100542.44;;;25.79;60.11
46211;BME280;52144;48.040;-1.594;2023-07-29T10:10:52;100533.41;;;25.46;60.25
46211;BME280;52144;48.040;-1.594;2023-07-29T10:13:21;100536.25;;;26.02;59.47
46211;BME280;52144;48.040;-1.594;2023-07-29T10:15:51;100540.56;;;25.63;58.91
46211;BME280;52144;48.040;-1.594;2023-07-29T10:18:22;100531.81;;;25.85;57.36
46211;BME280;52144;48.040;-1.594;2023-07-29T10:20:51;100535.91;;;26.45;57.00
46211;BME280;52144;48.040;-1.594;2023-07-29T10:23:21;100541.06;;;25.75;56.40
46211;BME280;52144;48.040;-1.594;2023-07-29T10:25:55;100539.22;;;26.23;57.31
46211;BME280;52144;48.040;-1.594;2023-07-29T10:28:26;100533.84;;;26.07;55.84
46211;BME280;52144;48.040;-1.594;2023-07-29T10:30:58;100536.72;;;26.14;54.12
46211;BME280;52144;48.040;-1.594;2023-07-29T10:33:26;100544.97;;;25.89;55.32
46211;BME280;52144;48.040;-1.594;2023-07-29T10:35:54;100533.31;;;26.12;53.78
46211;BME280;52144;48.040;-1.594;2023-07-29T10:38:23;100542.47;;;25.47;55.12
46211;BME280;52144;48.040;-1.594;2023-07-29T10:40:53;100537.50;;;25.58;55.55
46211;BME280;52144;48.040;-1.594;2023-07-29T10:43:28;100543.94;;;25.82;54.95
46211;BME280;52144;48.040;-1.594;2023-07-29T10:46:15;100538.09;;;26.18;54.38
46211;BME280;52144;48.040;-1.594;2023-07-29T10:48:51;100536.69;;;26.22;55.03
46211;BME280;52144;48.040;-1.594;2023-07-29T10:51:24;100537.78;;;25.88;54.95
46211;BME280;52144;48.040;-1.594;2023-07-29T10:53:53;100526.47;;;26.16;56.05
46211;BME280;52144;48.040;-1.594;2023-07-29T10:56:26;100532.03;;;26.70;54.43
46211;BME280;52144;48.040;-1.594;2023-07-29T10:58:55;100536.75;;;26.45;55.20
46211;BME280;52144;48.040;-1.594;2023-07-29T11:01:30;100538.88;;;26.66;55.03
46211;BME280;52144;48.040;-1.594;2023-07-29T11:04:23;100543.34;;;26.67;54.59
46211;BME280;52144;48.040;-1.594;2023-07-29T11:07:20;100548.91;;;26.74;55.13
46211;BME280;52144;48.040;-1.594;2023-07-29T11:09:58;100534.41;;;26.73;55.68
46211;BME280;52144;48.040;-1.594;2023-07-29T11:12:40;100541.28;;;26.92;55.19
46211;BME280;52144;48.040;-1.594;2023-07-29T11:15:18;100535.34;;;27.73;55.01
46211;BME280;52144;48.040;-1.594;2023-07-29T11:17:49;100537.50;;;27.16;54.15
46211;BME280;52144;48.040;-1.594;2023-07-29T11:20:19;100539.78;;;26.90;54.82
46211;BME280;52144;48.040;-1.594;2023-07-29T11:22:48;100541.50;;;26.59;54.97
46211;BME280;52144;48.040;-1.594;2023-07-29T11:25:17;100540.97;;;26.56;55.11
46211;BME280;52144;48.040;-1.594;2023-07-29T11:27:46;100543.78;;;26.39;55.55
46211;BME280;52144;48.040;-1.594;2023-07-29T11:30:15;100544.38;;;26.58;55.16
46211;BME280;52144;48.040;-1.594;2023-07-29T11:32:45;100537.47;;;26.39;54.73
46211;BME280;52144;48.040;-1.594;2023-07-29T11:35:16;100550.69;;;26.67;53.86
46211;BME280;52144;48.040;-1.594;2023-07-29T11:37:46;100546.84;;;27.07;54.51
46211;BME280;52144;48.040;-1.594;2023-07-29T11:40:14;100548.44;;;27.16;54.07
46211;BME280;52144;48.040;-1.594;2023-07-29T11:42:43;100548.56;;;27.00;53.78
46211;BME280;52144;48.040;-1.594;2023-07-29T11:45:12;100548.75;;;27.30;53.96
46211;BME280;52144;48.040;-1.594;2023-07-29T11:47:43;100547.00;;;26.43;55.73
46211;BME280;52144;48.040;-1.594;2023-07-29T11:50:12;100548.63;;;26.69;55.97
46211;BME280;52144;48.040;-1.594;2023-07-29T11:52:43;100549.56;;;27.07;54.12
46211;BME280;52144;48.040;-1.594;2023-07-29T11:55:12;100542.94;;;27.25;54.62
46211;BME280;52144;48.040;-1.594;2023-07-29T11:57:41;100545.78;;;27.54;54.21
46211;BME280;52144;48.040;-1.594;2023-07-29T12:00:11;100555.41;;;27.50;54.04
46211;BME280;52144;48.040;-1.594;2023-07-29T12:02:42;100549.38;;;27.70;54.39
46211;BME280;52144;48.040;-1.594;2023-07-29T12:05:13;100544.09;;;27.07;55.65
46211;BME280;52144;48.040;-1.594;2023-07-29T12:07:44;100550.69;;;26.90;55.05
46211;BME280;52144;48.040;-1.594;2023-07-29T12:10:12;100548.84;;;27.13;54.55
46211;BME280;52144;48.040;-1.594;2023-07-29T12:12:46;100548.91;;;27.05;55.89
46211;BME280;52144;48.040;-1.594;2023-07-29T12:15:23;100555.25;;;27.20;55.16
46211;BME280;52144;48.040;-1.594;2023-07-29T12:17:53;100554.72;;;27.25;55.09
46211;BME280;52144;48.040;-1.594;2023-07-29T12:20:23;100548.84;;;27.36;55.10
46211;BME280;52144;48.040;-1.594;2023-07-29T12:22:53;100548.78;;;27.21;54.33
46211;BME280;52144;48.040;-1.594;2023-07-29T12:25:22;100542.50;;;27.74;54.66
46211;BME280;52144;48.040;-1.594;2023-07-29T12:27:49;100554.81;;;28.52;54.11
46211;BME280;52144;48.040;-1.594;2023-07-29T12:30:20;100552.94;;;28.23;54.03
46211;BME280;52144;48.040;-1.594;2023-07-29T12:32:48;100549.59;;;27.83;55.02
46211;BME280;52144;48.040;-1.594;2023-07-29T12:35:16;100558.81;;;27.82;55.89
46211;BME280;52144;48.040;-1.594;2023-07-29T12:37:44;100546.22;;;28.26;54.15
46211;BME280;52144;48.040;-1.594;2023-07-29T12:40:23;100545.63;;;27.71;54.87
46211;BME280;52144;48.040;-1.594;2023-07-29T12:42:51;100538.16;;;27.79;54.90
46211;BME280;52144;48.040;-1.594;2023-07-29T12:45:19;100552.13;;;27.32;56.61
46211;BME280;52144;48.040;-1.594;2023-07-29T12:47:50;100550.13;;;27.64;55.64